createdAt,value
2017-09-13T00:00:37.244Z,93.09
2017-09-13T00:01:37.883Z,92.99
2017-09-13T00:02:38.770Z,92.61
2017-09-13T00:03:39.408Z,92.80
2017-09-13T00:04:40.043Z,93.19
2017-09-13T00:05:40.681Z,92.99
2017-09-13T00:06:41.316Z,92.51
2017-09-13T00:07:41.959Z,92.32
2017-09-13T00:08:42.590Z,92.90
2017-09-13T00:09:43.227Z,92.51
2017-09-13T00:10:44.061Z,92.51
2017-09-13T00:11:44.699Z,92.99
2017-09-13T00:12:45.334Z,92.80
2017-09-13T00:13:45.969Z,92.61
2017-09-13T00:14:46.607Z,93.09
2017-09-13T00:15:47.242Z,92.32
2017-09-13T00:16:47.878Z,92.51
2017-09-13T00:17:48.516Z,92.41
2017-09-13T00:18:49.352Z,92.41
2017-09-13T00:19:49.989Z,92.51
2017-09-13T00:20:50.628Z,92.41
2017-09-13T00:21:51.267Z,92.22
2017-09-13T00:22:51.905Z,92.51
2017-09-13T00:23:52.537Z,92.99
2017-09-13T00:24:53.173Z,92.51
2017-09-13T00:25:53.808Z,92.32
2017-09-13T00:26:54.444Z,92.32
2017-09-13T00:27:55.382Z,92.41
2017-09-13T00:28:56.015Z,92.27
2017-09-13T00:29:56.655Z,92.99
2017-09-13T00:30:57.289Z,92.94
2017-09-13T00:31:57.937Z,92.76
2017-09-13T00:32:58.617Z,93.04
2017-09-13T00:33:59.252Z,93.14
2017-09-13T00:34:59.888Z,92.76
2017-09-13T00:36:00.724Z,93.28
2017-09-13T00:37:01.361Z,93.48
2017-09-13T00:38:02.000Z,92.51
2017-09-13T00:39:02.636Z,93.48
2017-09-13T00:40:03.273Z,92.51
2017-09-13T00:41:03.910Z,92.51
2017-09-13T00:42:04.546Z,92.80
2017-09-13T00:43:05.183Z,92.61
2017-09-13T00:44:06.021Z,92.61
2017-09-13T00:45:06.661Z,92.41
2017-09-13T00:46:07.295Z,92.51
2017-09-13T00:47:07.932Z,91.93
2017-09-13T00:48:08.569Z,92.61
2017-09-13T00:49:09.205Z,91.93
2017-09-13T00:50:09.845Z,92.61
2017-09-13T00:51:10.478Z,92.03
2017-09-13T00:52:11.335Z,92.32
2017-09-13T00:53:12.003Z,92.41
2017-09-13T00:54:12.638Z,92.41
2017-09-13T00:55:13.276Z,92.32
2017-09-13T00:56:13.910Z,92.13
2017-09-13T00:57:14.550Z,92.41
2017-09-13T00:58:15.186Z,92.71
2017-09-13T00:59:15.822Z,92.41
2017-09-13T01:00:16.660Z,92.51
2017-09-13T01:01:17.296Z,92.41
2017-09-13T01:02:17.930Z,92.32
2017-09-13T01:03:18.565Z,92.51
2017-09-13T01:04:19.205Z,92.22
2017-09-13T01:05:19.893Z,92.13
2017-09-13T01:06:20.526Z,92.71
2017-09-13T01:07:21.163Z,92.22
2017-09-13T01:08:21.800Z,91.74
2017-09-13T01:09:22.637Z,91.64
2017-09-13T01:10:23.276Z,91.83
2017-09-13T01:11:23.915Z,91.93
2017-09-13T01:12:24.549Z,91.64
2017-09-13T01:13:25.185Z,91.83
2017-09-13T01:14:25.820Z,90.97
2017-09-13T01:15:26.456Z,91.64
2017-09-13T01:16:27.094Z,91.55
2017-09-13T01:17:27.931Z,91.45
2017-09-13T01:18:28.570Z,91.06
2017-09-13T01:19:29.209Z,91.55
2017-09-13T01:20:29.846Z,91.55
2017-09-13T01:21:30.485Z,91.64
2017-09-13T01:22:31.117Z,91.83
2017-09-13T01:23:31.704Z,92.13
2017-09-13T01:24:32.338Z,91.74
2017-09-13T01:25:33.175Z,91.83
2017-09-13T01:26:33.812Z,91.74
2017-09-13T01:27:34.446Z,91.74
2017-09-13T01:28:35.082Z,92.13
2017-09-13T01:29:35.718Z,91.74
2017-09-13T01:30:36.353Z,92.41
2017-09-13T01:31:36.988Z,91.74
2017-09-13T01:32:37.625Z,92.61
2017-09-13T01:33:38.463Z,91.74
2017-09-13T01:34:39.099Z,92.61
2017-09-13T01:35:39.735Z,91.93
2017-09-13T01:36:40.372Z,92.41
2017-09-13T01:37:41.009Z,92.41
2017-09-13T01:38:41.650Z,91.74
2017-09-13T01:39:42.286Z,92.51
2017-09-13T01:40:42.922Z,92.03
2017-09-13T01:41:43.557Z,91.93
2017-09-13T01:42:44.394Z,91.74
2017-09-13T01:43:45.032Z,91.93
2017-09-13T01:44:45.668Z,92.03
2017-09-13T01:45:46.307Z,91.36
2017-09-13T01:46:46.952Z,92.32
2017-09-13T01:47:47.579Z,91.69
2017-09-13T01:48:48.217Z,91.74
2017-09-13T01:49:48.851Z,91.64
2017-09-13T01:50:49.647Z,91.69
2017-09-13T01:51:50.275Z,91.99
2017-09-13T01:52:50.912Z,92.32
2017-09-13T01:53:51.551Z,92.18
2017-09-13T01:54:52.185Z,92.51
2017-09-13T01:55:52.821Z,92.56
2017-09-13T01:56:53.455Z,92.37
2017-09-13T01:57:54.091Z,92.47
2017-09-13T01:58:54.928Z,92.18
2017-09-13T01:59:55.563Z,92.47
2017-09-13T02:00:56.201Z,91.99
2017-09-13T02:01:56.886Z,92.27
2017-09-13T02:02:57.524Z,92.56
2017-09-13T02:03:58.158Z,92.76
2017-09-13T02:04:58.797Z,92.47
2017-09-13T02:05:59.432Z,93.04
2017-09-13T02:07:00.469Z,92.56
2017-09-13T02:08:01.107Z,93.04
2017-09-13T02:09:01.742Z,92.56
2017-09-13T02:10:02.377Z,92.94
2017-09-13T02:11:03.013Z,93.43
2017-09-13T02:12:03.652Z,92.76
2017-09-13T02:13:04.286Z,93.91
2017-09-13T02:14:04.921Z,93.14
2017-09-13T02:15:05.759Z,92.76
2017-09-13T02:16:06.397Z,93.52
2017-09-13T02:17:07.034Z,93.24
2017-09-13T02:18:07.671Z,93.04
2017-09-13T02:19:08.306Z,93.14
2017-09-13T02:20:08.940Z,93.62
2017-09-13T02:21:09.576Z,93.04
2017-09-13T02:22:10.215Z,92.37
2017-09-13T02:23:10.846Z,92.85
2017-09-13T02:24:11.781Z,93.14
2017-09-13T02:25:12.419Z,93.14
2017-09-13T02:26:13.057Z,92.94
2017-09-13T02:27:13.640Z,92.94
2017-09-13T02:28:14.275Z,92.85
2017-09-13T02:29:14.912Z,93.14
2017-09-13T02:30:15.547Z,93.14
2017-09-13T02:31:16.182Z,92.18
2017-09-13T02:32:17.018Z,92.94
2017-09-13T02:33:17.656Z,93.24
2017-09-13T02:34:18.289Z,93.04
2017-09-13T02:35:18.926Z,93.04
2017-09-13T02:36:19.565Z,92.66
2017-09-13T02:37:20.202Z,93.24
2017-09-13T02:38:20.836Z,92.56
2017-09-13T02:39:21.471Z,93.72
2017-09-13T02:40:22.256Z,92.85
2017-09-13T02:41:22.891Z,93.72
2017-09-13T02:42:23.536Z,92.27
2017-09-13T02:43:24.217Z,92.56
2017-09-13T02:44:24.859Z,92.56
2017-09-13T02:45:25.489Z,93.14
2017-09-13T02:46:26.128Z,92.76
2017-09-13T02:47:26.766Z,91.79
2017-09-13T02:48:27.602Z,92.08
2017-09-13T02:49:28.289Z,93.04
2017-09-13T02:50:28.930Z,92.85
2017-09-13T02:51:29.614Z,93.43
2017-09-13T02:52:30.271Z,93.14
2017-09-13T02:53:30.886Z,92.85
2017-09-13T02:54:31.552Z,92.94
2017-09-13T02:55:32.215Z,92.85
2017-09-13T02:56:32.853Z,92.47
2017-09-13T02:57:33.690Z,92.47
2017-09-13T02:58:34.337Z,92.94
2017-09-13T02:59:34.964Z,93.04
2017-09-13T03:00:35.604Z,93.14
2017-09-13T03:01:36.238Z,93.24
2017-09-13T03:02:36.873Z,92.85
2017-09-13T03:03:37.532Z,92.56
2017-09-13T03:04:38.146Z,92.27
2017-09-13T03:05:38.980Z,93.04
2017-09-13T03:06:39.620Z,93.24
2017-09-13T03:07:40.255Z,92.85
2017-09-13T03:08:40.890Z,92.94
2017-09-13T03:09:41.525Z,93.24
2017-09-13T03:10:42.159Z,92.47
2017-09-13T03:11:42.799Z,93.04
2017-09-13T03:12:43.434Z,92.56
2017-09-13T03:13:44.269Z,92.27
2017-09-13T03:14:44.907Z,92.47
2017-09-13T03:15:45.596Z,92.37
2017-09-13T03:16:46.229Z,92.08
2017-09-13T03:17:46.868Z,91.60
2017-09-13T03:18:47.505Z,92.56
2017-09-13T03:19:48.142Z,92.47
2017-09-13T03:20:48.779Z,92.47
2017-09-13T03:21:49.563Z,92.37
2017-09-13T03:22:50.200Z,91.69
2017-09-13T03:23:50.834Z,92.47
2017-09-13T03:24:51.473Z,92.76
2017-09-13T03:25:52.108Z,92.18
2017-09-13T03:26:52.746Z,92.66
2017-09-13T03:27:53.382Z,92.85
2017-09-13T03:28:54.017Z,92.66
2017-09-13T03:29:54.953Z,92.27
2017-09-13T03:30:55.593Z,92.76
2017-09-13T03:31:56.225Z,92.37
2017-09-13T03:32:56.861Z,92.08
2017-09-13T03:33:57.500Z,92.08
2017-09-13T03:34:58.137Z,92.37
2017-09-13T03:35:58.771Z,92.56
2017-09-13T03:36:59.457Z,92.27
2017-09-13T03:38:00.092Z,91.99
2017-09-13T03:39:00.878Z,92.37
2017-09-13T03:40:01.513Z,93.04
2017-09-13T03:41:02.152Z,92.47
2017-09-13T03:42:02.786Z,91.50
2017-09-13T03:43:03.423Z,91.50
2017-09-13T03:44:04.058Z,92.27
2017-09-13T03:45:04.696Z,92.27
2017-09-13T03:46:05.334Z,92.27
2017-09-13T03:47:06.170Z,92.85
2017-09-13T03:48:06.809Z,92.85
2017-09-13T03:49:07.443Z,92.66
2017-09-13T03:50:08.078Z,92.18
2017-09-13T03:51:08.737Z,92.27
2017-09-13T03:52:09.400Z,91.60
2017-09-13T03:53:10.036Z,92.37
2017-09-13T03:54:10.675Z,92.27
2017-09-13T03:55:11.509Z,92.08
2017-09-13T03:56:12.147Z,91.69
2017-09-13T03:57:12.784Z,91.69
2017-09-13T03:58:13.420Z,92.08
2017-09-13T03:59:14.054Z,91.99
2017-09-13T04:00:14.695Z,92.27
2017-09-13T04:01:15.331Z,92.66
2017-09-13T04:02:15.969Z,92.56
2017-09-13T04:03:16.902Z,92.47
2017-09-13T04:04:17.545Z,93.04
2017-09-13T04:05:18.181Z,92.18
2017-09-13T04:06:18.816Z,92.27
2017-09-13T04:07:19.452Z,92.56
2017-09-13T04:08:20.091Z,92.37
2017-09-13T04:09:20.729Z,92.56
2017-09-13T04:10:21.364Z,92.18
2017-09-13T04:11:22.000Z,92.47
2017-09-13T04:12:22.836Z,92.08
2017-09-13T04:13:23.472Z,92.47
2017-09-13T04:14:24.111Z,91.69
2017-09-13T04:15:24.746Z,92.66
2017-09-13T04:16:25.388Z,93.04
2017-09-13T04:17:26.017Z,92.47
2017-09-13T04:18:26.659Z,92.76
2017-09-13T04:19:27.343Z,92.94
2017-09-13T04:20:28.131Z,92.85
2017-09-13T04:21:28.767Z,93.04
2017-09-13T04:22:29.401Z,92.37
2017-09-13T04:23:30.037Z,92.56
2017-09-13T04:24:30.674Z,92.08
2017-09-13T04:25:31.309Z,92.66
2017-09-13T04:26:31.944Z,92.08
2017-09-13T04:27:32.580Z,91.89
2017-09-13T04:28:33.415Z,91.69
2017-09-13T04:29:34.052Z,91.50
2017-09-13T04:30:34.692Z,92.18
2017-09-13T04:31:35.324Z,91.99
2017-09-13T04:32:35.960Z,92.76
2017-09-13T04:33:36.595Z,92.56
2017-09-13T04:34:37.235Z,92.56
2017-09-13T04:35:37.905Z,92.76
2017-09-13T04:36:38.705Z,92.18
2017-09-13T04:37:39.343Z,92.47
2017-09-13T04:38:39.978Z,92.56
2017-09-13T04:39:40.616Z,92.08
2017-09-13T04:40:41.279Z,92.47
2017-09-13T04:41:41.886Z,92.76
2017-09-13T04:42:42.521Z,92.08
2017-09-13T04:43:43.157Z,93.14
2017-09-13T04:44:43.994Z,92.37
2017-09-13T04:45:44.630Z,92.27
2017-09-13T04:46:45.265Z,92.37
2017-09-13T04:47:45.903Z,92.85
2017-09-13T04:48:46.538Z,92.76
2017-09-13T04:49:47.172Z,92.85
2017-09-13T04:50:47.807Z,92.94
2017-09-13T04:51:48.447Z,93.33
2017-09-13T04:52:49.131Z,93.14
2017-09-13T04:53:49.915Z,93.24
2017-09-13T04:54:50.555Z,92.94
2017-09-13T04:55:51.190Z,93.24
2017-09-13T04:56:52.181Z,92.66
2017-09-13T04:57:52.764Z,92.37
2017-09-13T04:58:53.398Z,92.56
2017-09-13T04:59:54.037Z,91.99
2017-09-13T05:00:54.675Z,92.66
2017-09-13T05:01:55.562Z,92.47
2017-09-13T05:02:56.202Z,92.66
2017-09-13T05:03:56.838Z,92.76
2017-09-13T05:04:57.526Z,92.56
2017-09-13T05:05:58.169Z,92.08
2017-09-13T05:06:58.811Z,92.47
2017-09-13T05:07:59.437Z,92.18
2017-09-13T05:09:00.075Z,92.47
2017-09-13T05:10:01.062Z,92.27
2017-09-13T05:11:01.699Z,91.89
2017-09-13T05:12:02.334Z,92.37
2017-09-13T05:13:02.969Z,93.14
2017-09-13T05:14:03.607Z,92.37
2017-09-13T05:15:04.244Z,92.85
2017-09-13T05:16:04.880Z,92.76
2017-09-13T05:17:05.523Z,92.94
2017-09-13T05:18:06.354Z,92.85
2017-09-13T05:19:06.993Z,93.14
2017-09-13T05:20:07.629Z,92.76
2017-09-13T05:21:08.268Z,92.27
2017-09-13T05:22:08.906Z,92.47
2017-09-13T05:23:09.541Z,92.85
2017-09-13T05:24:10.178Z,92.37
2017-09-13T05:25:10.813Z,92.47
2017-09-13T05:26:11.453Z,92.85
2017-09-13T05:27:12.239Z,93.04
2017-09-13T05:28:12.878Z,92.47
2017-09-13T05:29:13.517Z,92.27
2017-09-13T05:30:14.150Z,92.94
2017-09-13T05:31:14.788Z,92.18
2017-09-13T05:32:15.459Z,93.04
2017-09-13T05:33:16.115Z,92.90
2017-09-13T05:34:16.754Z,92.37
2017-09-13T05:35:17.639Z,92.85
2017-09-13T05:36:18.276Z,92.32
2017-09-13T05:37:18.912Z,92.94
2017-09-13T05:38:19.553Z,93.91
2017-09-13T05:39:20.186Z,92.85
2017-09-13T05:40:20.822Z,93.14
2017-09-13T05:41:21.457Z,93.00
2017-09-13T05:42:22.096Z,93.38
2017-09-13T05:43:22.981Z,93.14
2017-09-13T05:44:23.621Z,92.85
2017-09-13T05:45:24.255Z,93.33
2017-09-13T05:46:24.894Z,92.56
2017-09-13T05:47:25.529Z,92.71
2017-09-13T05:48:26.169Z,93.04
2017-09-13T05:49:26.802Z,93.19
2017-09-13T05:50:27.440Z,93.33
2017-09-13T05:51:28.227Z,92.90
2017-09-13T05:52:28.864Z,93.72
2017-09-13T05:53:29.501Z,93.33
2017-09-13T05:54:30.086Z,93.19
2017-09-13T05:55:30.722Z,93.00
2017-09-13T05:56:31.359Z,93.29
2017-09-13T05:57:31.994Z,93.24
2017-09-13T05:58:32.634Z,92.90
2017-09-13T05:59:33.469Z,93.14
2017-09-13T06:00:34.125Z,93.04
2017-09-13T06:01:34.692Z,93.14
2017-09-13T06:02:35.328Z,92.85
2017-09-13T06:03:35.966Z,93.43
2017-09-13T06:04:36.601Z,92.03
2017-09-13T06:05:37.237Z,92.42
2017-09-13T06:06:37.877Z,92.42
2017-09-13T06:07:38.512Z,93.19
2017-09-13T06:08:39.403Z,93.19
2017-09-13T06:09:40.033Z,93.29
2017-09-13T06:10:40.670Z,92.90
2017-09-13T06:11:41.306Z,92.80
2017-09-13T06:12:41.940Z,92.22
2017-09-13T06:13:42.576Z,92.90
2017-09-13T06:14:43.215Z,92.90
2017-09-13T06:15:43.851Z,92.61
2017-09-13T06:16:44.687Z,92.61
2017-09-13T06:17:45.375Z,92.22
2017-09-13T06:18:46.994Z,92.32
2017-09-13T06:19:48.583Z,92.42
2017-09-13T06:20:49.222Z,92.22
2017-09-13T06:21:49.856Z,93.09
2017-09-13T06:22:50.493Z,92.90
2017-09-13T06:23:51.130Z,92.90
2017-09-13T06:24:51.917Z,93.09
2017-09-13T06:25:52.553Z,93.77
2017-09-13T06:26:53.191Z,93.48
2017-09-13T06:27:53.828Z,92.90
2017-09-13T06:28:54.462Z,92.42
2017-09-13T06:29:55.098Z,92.42
2017-09-13T06:30:55.691Z,93.09
2017-09-13T06:31:56.326Z,92.42
2017-09-13T06:32:57.160Z,92.90
2017-09-13T06:33:57.797Z,93.09
2017-09-13T06:34:58.432Z,92.80
2017-09-13T06:35:59.071Z,93.29
2017-09-13T06:36:59.708Z,92.90
2017-09-13T06:38:00.344Z,93.77
2017-09-13T06:39:00.981Z,93.09
2017-09-13T06:40:01.615Z,93.09
2017-09-13T06:41:02.903Z,92.90
2017-09-13T06:42:03.592Z,93.57
2017-09-13T06:43:04.229Z,93.77
2017-09-13T06:44:04.867Z,92.90
2017-09-13T06:45:05.504Z,93.48
2017-09-13T06:46:06.141Z,92.90
2017-09-13T06:47:06.776Z,93.77
2017-09-13T06:48:07.411Z,94.82
2017-09-13T06:49:08.053Z,94.64
2017-09-13T06:50:08.886Z,93.48
2017-09-13T06:51:09.549Z,93.19
2017-09-13T06:52:10.213Z,92.13
2017-09-13T06:53:10.850Z,91.65
2017-09-13T06:54:11.487Z,91.65
2017-09-13T06:55:12.123Z,91.60
2017-09-13T06:56:12.759Z,92.18
2017-09-13T06:57:13.394Z,92.95
2017-09-13T06:58:14.232Z,93.62
2017-09-13T06:59:14.868Z,93.24
2017-09-13T07:00:15.557Z,93.43
2017-09-13T07:01:17.138Z,94.01
2017-09-13T07:02:17.775Z,94.25
2017-09-13T07:03:18.410Z,94.45
2017-09-13T07:04:19.045Z,94.83
2017-09-13T07:05:19.680Z,94.73
2017-09-13T07:06:20.520Z,95.12
2017-09-13T07:07:21.357Z,95.60
2017-09-13T07:08:21.996Z,95.79
2017-09-13T07:09:22.631Z,96.47
2017-09-13T07:10:23.267Z,96.27
2017-09-13T07:11:23.903Z,96.08
2017-09-13T07:12:24.541Z,96.17
2017-09-13T07:13:25.178Z,96.94
2017-09-13T07:14:25.814Z,96.85
2017-09-13T07:15:26.652Z,96.56
2017-09-13T07:16:27.342Z,96.37
2017-09-13T07:17:27.981Z,97.14
2017-09-13T07:18:28.615Z,96.94
2017-09-13T07:19:29.253Z,97.24
2017-09-13T07:20:29.888Z,97.24
2017-09-13T07:21:30.525Z,97.33
2017-09-13T07:22:31.165Z,97.42
2017-09-13T07:23:32.003Z,97.24
2017-09-13T07:24:32.639Z,97.14
2017-09-13T07:25:33.277Z,97.33
2017-09-13T07:26:33.915Z,97.52
2017-09-13T07:27:34.548Z,97.42
2017-09-13T07:28:35.187Z,97.24
2017-09-13T07:29:35.823Z,97.24
2017-09-13T07:30:36.461Z,97.81
2017-09-13T07:31:37.298Z,97.33
2017-09-13T07:32:37.936Z,97.24
2017-09-13T07:33:38.574Z,97.33
2017-09-13T07:34:39.210Z,97.42
2017-09-13T07:35:39.844Z,97.14
2017-09-13T07:36:40.483Z,97.91
2017-09-13T07:37:41.118Z,97.62
2017-09-13T07:38:41.756Z,97.71
2017-09-13T07:39:42.394Z,97.42
2017-09-13T07:40:43.179Z,97.33
2017-09-13T07:41:43.815Z,97.33
2017-09-13T07:42:44.452Z,97.52
2017-09-13T07:43:45.088Z,98.10
2017-09-13T07:44:45.725Z,97.62
2017-09-13T07:45:46.364Z,98.00
2017-09-13T07:46:47.000Z,97.81
2017-09-13T07:47:47.637Z,97.91
2017-09-13T07:48:48.472Z,98.19
2017-09-13T07:49:49.110Z,98.10
2017-09-13T07:50:49.744Z,97.62
2017-09-13T07:51:50.382Z,97.42
2017-09-13T07:52:51.019Z,97.33
2017-09-13T07:53:51.658Z,97.24
2017-09-13T07:54:52.298Z,97.33
2017-09-13T07:55:52.932Z,97.33
2017-09-13T07:56:53.768Z,98.00
2017-09-13T07:57:54.404Z,97.62
2017-09-13T07:58:55.038Z,97.62
2017-09-13T07:59:55.672Z,97.62
2017-09-13T08:00:56.310Z,97.52
2017-09-13T08:01:56.944Z,97.62
2017-09-13T08:02:57.580Z,97.14
2017-09-13T08:03:58.217Z,97.24
2017-09-13T08:04:59.060Z,97.24
2017-09-13T08:05:59.693Z,97.33
2017-09-13T08:07:00.329Z,97.33
2017-09-13T08:08:00.967Z,97.24
2017-09-13T08:09:01.604Z,97.81
2017-09-13T08:10:02.241Z,97.57
2017-09-13T08:11:02.878Z,97.81
2017-09-13T08:12:03.513Z,97.52
2017-09-13T08:13:04.351Z,97.81
2017-09-13T08:14:04.989Z,97.71
2017-09-13T08:15:05.677Z,97.42
2017-09-13T08:16:06.315Z,97.33
2017-09-13T08:17:06.952Z,97.71
2017-09-13T08:18:07.591Z,97.71
2017-09-13T08:19:08.226Z,97.42
2017-09-13T08:20:08.863Z,97.28
2017-09-13T08:21:09.497Z,97.09
2017-09-13T08:22:10.433Z,97.57
2017-09-13T08:23:11.071Z,97.28
2017-09-13T08:24:11.708Z,97.28
2017-09-13T08:25:12.393Z,97.38
2017-09-13T08:26:13.029Z,97.19
2017-09-13T08:27:13.665Z,97.19
2017-09-13T08:28:14.306Z,96.99
2017-09-13T08:29:14.988Z,97.09
2017-09-13T08:30:15.824Z,96.99
2017-09-13T08:31:16.461Z,97.09
2017-09-13T08:32:17.097Z,97.38
2017-09-13T08:33:17.733Z,96.80
2017-09-13T08:34:18.368Z,96.51
2017-09-13T08:35:19.003Z,96.80
2017-09-13T08:36:19.640Z,96.61
2017-09-13T08:37:20.285Z,96.70
2017-09-13T08:38:21.161Z,96.70
2017-09-13T08:39:21.798Z,96.80
2017-09-13T08:40:22.435Z,96.42
2017-09-13T08:41:23.070Z,96.51
2017-09-13T08:42:23.708Z,96.99
2017-09-13T08:43:24.341Z,96.80
2017-09-13T08:44:24.978Z,96.89
2017-09-13T08:45:25.614Z,96.61
2017-09-13T08:46:26.455Z,96.03
2017-09-13T08:47:27.086Z,96.12
2017-09-13T08:48:27.722Z,96.37
2017-09-13T08:49:28.356Z,96.08
2017-09-13T08:50:28.991Z,96.32
2017-09-13T08:51:29.629Z,96.12
2017-09-13T08:52:30.264Z,96.32
2017-09-13T08:53:30.899Z,96.27
2017-09-13T08:54:31.534Z,96.12
2017-09-13T08:55:32.521Z,96.27
2017-09-13T08:56:33.164Z,96.37
2017-09-13T08:57:33.794Z,96.27
2017-09-13T08:58:34.429Z,96.37
2017-09-13T08:59:35.064Z,96.32
2017-09-13T09:00:35.701Z,95.79
2017-09-13T09:01:36.336Z,95.89
2017-09-13T09:02:36.970Z,95.79
2017-09-13T09:03:37.856Z,95.60
2017-09-13T09:04:38.495Z,95.98
2017-09-13T09:05:39.130Z,95.79
2017-09-13T09:06:39.765Z,95.79
2017-09-13T09:07:40.402Z,95.69
2017-09-13T09:08:41.039Z,95.40
2017-09-13T09:09:41.674Z,95.50
2017-09-13T09:10:42.309Z,94.92
2017-09-13T09:11:43.144Z,95.21
2017-09-13T09:12:43.779Z,95.98
2017-09-13T09:13:44.416Z,95.31
2017-09-13T09:14:45.053Z,95.21
2017-09-13T09:15:45.693Z,95.12
2017-09-13T09:16:46.325Z,94.82
2017-09-13T09:17:46.963Z,94.44
2017-09-13T09:18:47.596Z,94.59
2017-09-13T09:19:48.634Z,94.59
2017-09-13T09:20:49.269Z,95.12
2017-09-13T09:21:49.906Z,94.92
2017-09-13T09:22:50.543Z,94.59
2017-09-13T09:23:51.178Z,94.73
2017-09-13T09:24:51.813Z,94.10
2017-09-13T09:25:52.450Z,94.25
2017-09-13T09:26:53.085Z,94.68
2017-09-13T09:27:54.021Z,94.49
2017-09-13T09:28:54.656Z,93.62
2017-09-13T09:29:55.293Z,93.52
2017-09-13T09:30:55.931Z,93.72
2017-09-13T09:31:56.572Z,93.91
2017-09-13T09:32:57.204Z,93.24
2017-09-13T09:33:57.839Z,93.52
2017-09-13T09:34:58.477Z,93.33
2017-09-13T09:35:59.113Z,93.62
2017-09-13T09:36:59.951Z,93.81
2017-09-13T09:38:00.589Z,93.72
2017-09-13T09:39:01.230Z,92.85
2017-09-13T09:40:01.861Z,92.27
2017-09-13T09:41:02.497Z,92.37
2017-09-13T09:42:03.135Z,92.18
2017-09-13T09:43:03.770Z,92.18
2017-09-13T09:44:04.405Z,92.18
2017-09-13T09:45:05.240Z,92.71
2017-09-13T09:46:05.876Z,92.27
2017-09-13T09:47:06.513Z,91.26
2017-09-13T09:48:07.147Z,91.16
2017-09-13T09:49:07.785Z,90.88
2017-09-13T09:50:08.420Z,90.88
2017-09-13T09:51:09.055Z,90.78
2017-09-13T09:52:09.693Z,90.97
2017-09-13T09:53:10.479Z,90.00
2017-09-13T09:54:11.117Z,89.53
2017-09-13T09:55:11.754Z,89.14
2017-09-13T09:56:12.392Z,89.14
2017-09-13T09:57:13.028Z,88.75
2017-09-13T09:58:13.666Z,88.46
2017-09-13T09:59:14.301Z,88.17
2017-09-13T10:00:14.938Z,88.17
2017-09-13T10:01:15.825Z,87.50
2017-09-13T10:02:16.462Z,87.50
2017-09-13T10:03:17.097Z,87.21
2017-09-13T10:04:17.735Z,87.12
2017-09-13T10:05:18.371Z,87.26
2017-09-13T10:06:19.007Z,86.39
2017-09-13T10:07:19.643Z,86.19
2017-09-13T10:08:20.281Z,86.77
2017-09-13T10:09:20.916Z,86.96
2017-09-13T10:10:21.704Z,86.77
2017-09-13T10:11:22.340Z,86.68
2017-09-13T10:12:22.975Z,86.96
2017-09-13T10:13:23.611Z,86.68
2017-09-13T10:14:24.249Z,86.96
2017-09-13T10:15:24.886Z,86.00
2017-09-13T10:16:25.522Z,86.29
2017-09-13T10:17:26.160Z,86.10
2017-09-13T10:18:27.096Z,86.00
2017-09-13T10:19:27.738Z,86.10
2017-09-13T10:20:28.368Z,86.48
2017-09-13T10:21:29.007Z,86.00
2017-09-13T10:22:29.642Z,86.10
2017-09-13T10:23:30.280Z,85.81
2017-09-13T10:24:30.916Z,85.91
2017-09-13T10:25:31.551Z,86.10
2017-09-13T10:26:32.387Z,86.19
2017-09-13T10:27:33.025Z,86.19
2017-09-13T10:28:33.713Z,86.10
2017-09-13T10:29:34.350Z,87.16
2017-09-13T10:30:34.985Z,86.77
2017-09-13T10:31:35.624Z,86.77
2017-09-13T10:32:36.260Z,87.06
2017-09-13T10:33:36.896Z,87.64
2017-09-13T10:34:37.733Z,88.12
2017-09-13T10:35:38.369Z,87.64
2017-09-13T10:36:39.005Z,87.45
2017-09-13T10:37:39.642Z,88.31
2017-09-13T10:38:40.284Z,88.31
2017-09-13T10:39:40.916Z,88.51
2017-09-13T10:40:41.554Z,87.83
2017-09-13T10:41:42.192Z,87.74
2017-09-13T10:42:43.029Z,87.45
2017-09-13T10:43:43.665Z,88.51
2017-09-13T10:44:44.301Z,88.51
2017-09-13T10:45:44.939Z,87.74
2017-09-13T10:46:45.575Z,87.64
2017-09-13T10:47:46.211Z,88.60
2017-09-13T10:48:46.847Z,88.60
2017-09-13T10:49:47.484Z,88.22
2017-09-13T10:50:48.122Z,88.31
2017-09-13T10:51:49.309Z,87.54
2017-09-13T10:52:49.997Z,87.45
2017-09-13T10:53:50.632Z,88.02
2017-09-13T10:54:51.269Z,87.54
2017-09-13T10:55:51.906Z,87.45
2017-09-13T10:56:52.545Z,87.74
2017-09-13T10:57:53.182Z,87.54
2017-09-13T10:58:53.819Z,87.35
2017-09-13T10:59:54.656Z,87.83
2017-09-13T11:00:55.294Z,87.74
2017-09-13T11:01:55.935Z,87.74
2017-09-13T11:02:56.565Z,87.64
2017-09-13T11:03:57.205Z,87.74
2017-09-13T11:04:57.839Z,87.35
2017-09-13T11:05:58.480Z,87.83
2017-09-13T11:06:59.120Z,87.68
2017-09-13T11:07:59.958Z,87.88
2017-09-13T11:09:00.597Z,87.30
2017-09-13T11:10:01.284Z,87.20
2017-09-13T11:11:01.921Z,87.20
2017-09-13T11:12:02.559Z,87.01
2017-09-13T11:13:03.197Z,86.91
2017-09-13T11:14:03.834Z,86.62
2017-09-13T11:15:04.472Z,86.82
2017-09-13T11:16:05.308Z,86.91
2017-09-13T11:17:05.946Z,87.01
2017-09-13T11:18:06.584Z,87.20
2017-09-13T11:19:07.221Z,86.72
2017-09-13T11:20:07.857Z,86.62
2017-09-13T11:21:08.493Z,86.24
2017-09-13T11:22:09.115Z,86.43
2017-09-13T11:23:09.745Z,85.94
2017-09-13T11:24:10.372Z,86.52
2017-09-13T11:25:11.151Z,86.33
2017-09-13T11:26:11.781Z,86.14
2017-09-13T11:27:12.410Z,85.94
2017-09-13T11:28:13.060Z,85.94
2017-09-13T11:29:13.671Z,85.75
2017-09-13T11:30:14.300Z,86.14
2017-09-13T11:31:14.928Z,86.14
2017-09-13T11:32:15.561Z,85.85
2017-09-13T11:33:16.589Z,86.33
2017-09-13T11:34:17.227Z,85.85
2017-09-13T11:35:17.851Z,86.18
2017-09-13T11:36:18.480Z,85.94
2017-09-13T11:37:19.123Z,85.85
2017-09-13T11:38:19.761Z,85.94
2017-09-13T11:39:20.398Z,86.04
2017-09-13T11:40:21.035Z,85.89
2017-09-13T11:41:21.821Z,85.75
2017-09-13T11:42:22.460Z,85.85
2017-09-13T11:43:23.095Z,85.89
2017-09-13T11:44:23.733Z,85.60
2017-09-13T11:45:24.370Z,85.80
2017-09-13T11:46:25.007Z,85.27
2017-09-13T11:47:25.645Z,85.70
2017-09-13T11:48:26.282Z,85.70
2017-09-13T11:49:27.168Z,85.70
2017-09-13T11:50:27.810Z,85.22
2017-09-13T11:51:28.444Z,84.93
2017-09-13T11:52:29.083Z,85.12
2017-09-13T11:53:29.719Z,85.22
2017-09-13T11:54:30.358Z,85.12
2017-09-13T11:55:30.995Z,85.12
2017-09-13T11:56:31.632Z,84.74
2017-09-13T11:57:32.519Z,84.64
2017-09-13T11:58:33.158Z,84.74
2017-09-13T11:59:33.795Z,84.06
2017-09-13T12:00:34.433Z,84.16
2017-09-13T12:01:35.069Z,83.87
2017-09-13T12:02:35.708Z,83.96
2017-09-13T12:03:36.345Z,84.06
2017-09-13T12:04:36.981Z,84.25
2017-09-13T12:05:37.623Z,84.06
2017-09-13T12:06:38.411Z,83.58
2017-09-13T12:07:39.048Z,83.87
2017-09-13T12:08:39.687Z,83.58
2017-09-13T12:09:40.324Z,83.19
2017-09-13T12:10:40.961Z,83.39
2017-09-13T12:11:41.599Z,83.09
2017-09-13T12:12:42.236Z,83.00
2017-09-13T12:13:42.874Z,83.29
2017-09-13T12:14:43.710Z,83.29
2017-09-13T12:15:44.348Z,83.39
2017-09-13T12:16:44.988Z,83.09
2017-09-13T12:17:45.625Z,83.09
2017-09-13T12:18:46.262Z,82.42
2017-09-13T12:19:46.898Z,82.17
2017-09-13T12:20:47.542Z,82.51
2017-09-13T12:21:48.172Z,82.71
2017-09-13T12:22:49.009Z,82.84
2017-09-13T12:23:49.648Z,82.42
2017-09-13T12:24:50.285Z,82.61
2017-09-13T12:25:50.922Z,82.81
2017-09-13T12:26:51.612Z,82.71
2017-09-13T12:27:52.249Z,82.81
2017-09-13T12:28:52.887Z,82.90
2017-09-13T12:29:53.524Z,82.46
2017-09-13T12:30:54.361Z,82.51
2017-09-13T12:31:54.999Z,82.61
2017-09-13T12:32:55.637Z,82.51
2017-09-13T12:33:56.274Z,82.65
2017-09-13T12:34:56.912Z,83.19
2017-09-13T12:35:57.551Z,82.23
2017-09-13T12:36:58.189Z,82.36
2017-09-13T12:37:58.826Z,82.07
2017-09-13T12:38:59.465Z,82.13
2017-09-13T12:40:00.252Z,82.13
2017-09-13T12:41:00.890Z,81.84
2017-09-13T12:42:01.528Z,82.26
2017-09-13T12:43:02.167Z,82.13
2017-09-13T12:44:02.805Z,82.23
2017-09-13T12:45:03.442Z,82.13
2017-09-13T12:46:04.079Z,82.61
2017-09-13T12:47:04.717Z,82.51
2017-09-13T12:48:05.556Z,82.23
2017-09-13T12:49:06.196Z,82.23
2017-09-13T12:50:06.832Z,82.23
2017-09-13T12:51:07.470Z,82.61
2017-09-13T12:52:08.111Z,82.13
2017-09-13T12:53:08.745Z,81.98
2017-09-13T12:54:09.383Z,82.07
2017-09-13T12:55:10.021Z,81.84
2017-09-13T12:56:10.857Z,81.88
2017-09-13T12:57:11.502Z,82.03
2017-09-13T12:58:12.135Z,82.03
2017-09-13T12:59:12.770Z,81.65
2017-09-13T13:00:13.409Z,81.55
2017-09-13T13:01:14.046Z,81.88